createdAt,value
2022-08-28T00:00:33.000Z,74.80
2022-08-28T00:03:01.438Z,75.10
2022-08-28T00:05:31.783Z,75.30
2022-08-28T00:08:00.151Z,75.50
2022-08-28T00:10:29.213Z,75.70
2022-08-28T00:12:58.308Z,75.90
2022-08-28T00:15:27.605Z,76.10
2022-08-28T00:17:55.369Z,76.00
2022-08-28T00:20:24.718Z,76.20
2022-08-28T00:22:52.932Z,76.50
2022-08-28T00:25:24.304Z,76.70
2022-08-28T00:27:55.292Z,76.90
2022-08-28T00:30:36.783Z,77.20
2022-08-28T00:33:14.507Z,77.60
2022-08-28T00:35:43.388Z,77.90
2022-08-28T00:38:12.849Z,77.90
2022-08-28T00:40:44.721Z,78.20
2022-08-28T00:43:40.330Z,78.50
2022-08-28T00:46:15.071Z,79.00
2022-08-28T00:48:43.104Z,78.90
2022-08-28T00:51:30.744Z,79.10
2022-08-28T00:54:00.660Z,79.30
2022-08-28T00:56:30.518Z,79.50
2022-08-28T00:59:03.663Z,79.70
2022-08-28T01:01:31.707Z,80.00
2022-08-28T01:03:59.552Z,80.10
2022-08-28T01:06:27.266Z,80.20
2022-08-28T01:08:54.823Z,80.30
2022-08-28T01:11:23.757Z,80.40
2022-08-28T01:13:54.500Z,80.60
2022-08-28T01:16:23.558Z,80.60
2022-08-28T01:19:00.774Z,80.70
2022-08-28T01:21:31.099Z,81.00
2022-08-28T01:24:02.170Z,80.90
2022-08-28T01:26:30.422Z,81.00
2022-08-28T01:28:59.408Z,81.30
2022-08-28T01:31:28.419Z,81.50
2022-08-28T01:33:56.669Z,81.50
2022-08-28T01:36:24.517Z,81.70
2022-08-28T01:39:01.127Z,81.90
2022-08-28T01:41:29.662Z,82.20
2022-08-28T01:43:57.763Z,82.30
2022-08-28T01:46:25.523Z,82.40
2022-08-28T01:48:53.124Z,82.30
2022-08-28T01:51:24.511Z,82.30
2022-08-28T01:53:52.687Z,82.40
2022-08-28T01:56:20.417Z,82.30
2022-08-28T01:58:50.844Z,82.30
2022-08-28T02:01:21.153Z,82.30
2022-08-28T02:03:49.306Z,82.20
2022-08-28T02:06:18.273Z,82.20
2022-08-28T02:08:46.757Z,82.20
2022-08-28T02:11:15.989Z,82.10
2022-08-28T02:13:44.878Z,82.20
2022-08-28T02:16:12.987Z,82.40
2022-08-28T02:18:41.319Z,82.50
2022-08-28T02:21:10.504Z,82.60
2022-08-28T02:23:40.954Z,82.70
2022-08-28T02:26:09.467Z,82.80
2022-08-28T02:28:38.016Z,83.00
2022-08-28T02:31:09.427Z,83.10
2022-08-28T02:33:46.442Z,83.20
2022-08-28T02:36:15.485Z,83.40
2022-08-28T02:38:44.303Z,83.40
2022-08-28T02:41:12.453Z,83.40
2022-08-28T02:43:40.725Z,83.50
2022-08-28T02:46:08.960Z,83.60
2022-08-28T02:48:38.724Z,83.70
2022-08-28T02:51:09.953Z,83.90
2022-08-28T02:53:39.211Z,84.10
2022-08-28T02:56:07.914Z,84.10
2022-08-28T02:58:36.438Z,84.20
2022-08-28T03:01:07.396Z,84.30
2022-08-28T03:03:35.548Z,84.40
2022-08-28T03:06:04.966Z,84.40
2022-08-28T03:08:33.247Z,84.50
2022-08-28T03:11:01.174Z,84.60
2022-08-28T03:13:30.209Z,84.70
2022-08-28T03:15:58.708Z,84.80
2022-08-28T03:18:30.342Z,84.90
2022-08-28T03:20:59.940Z,84.90
2022-08-28T03:23:27.940Z,85.10
2022-08-28T03:26:14.685Z,85.20
2022-08-28T03:28:45.388Z,85.30
2022-08-28T03:31:16.453Z,85.30
2022-08-28T03:33:45.143Z,85.30
2022-08-28T03:36:15.740Z,85.40
2022-08-28T03:38:43.784Z,85.40
2022-08-28T03:41:17.794Z,85.50
2022-08-28T03:43:45.942Z,85.60
2022-08-28T03:46:16.969Z,85.60
2022-08-28T03:48:45.473Z,85.80
2022-08-28T03:51:16.190Z,85.80
2022-08-28T03:53:45.943Z,85.90
2022-08-28T03:56:17.517Z,86.00
2022-08-28T03:58:45.396Z,86.10
2022-08-28T04:01:13.096Z,86.20
2022-08-28T04:03:41.133Z,86.30
2022-08-28T04:06:08.828Z,86.30
2022-08-28T04:08:37.625Z,86.40
2022-08-28T04:11:05.776Z,86.50
2022-08-28T04:13:33.570Z,86.60
2022-08-28T04:16:10.853Z,86.60
2022-08-28T04:18:40.812Z,86.80
2022-08-28T04:21:12.338Z,86.80
2022-08-28T04:23:45.132Z,86.90
2022-08-28T04:26:15.805Z,86.90
2022-08-28T04:28:44.030Z,87.00
2022-08-28T04:31:11.727Z,87.10
2022-08-28T04:33:40.498Z,87.10
2022-08-28T04:36:14.833Z,87.20
2022-08-28T04:38:44.050Z,87.30
2022-08-28T04:41:14.492Z,87.30
2022-08-28T04:43:43.666Z,87.30
2022-08-28T04:46:13.589Z,87.30
2022-08-28T04:48:42.125Z,87.40
2022-08-28T04:51:11.299Z,87.40
2022-08-28T04:53:39.717Z,87.40
2022-08-28T04:56:11.030Z,87.40
2022-08-28T04:58:40.249Z,87.50
2022-08-28T05:01:11.349Z,87.50
2022-08-28T05:03:40.078Z,87.50
2022-08-28T05:06:08.322Z,87.60
2022-08-28T05:08:36.191Z,87.60
2022-08-28T05:11:33.066Z,87.60
2022-08-28T05:14:05.717Z,87.80
2022-08-28T05:16:39.418Z,87.70
2022-08-28T05:19:07.112Z,87.70
2022-08-28T05:21:34.858Z,87.70
2022-08-28T05:24:04.731Z,87.70
2022-08-28T05:26:34.036Z,87.80
2022-08-28T05:29:03.287Z,87.80
2022-08-28T05:31:31.852Z,87.80
2022-08-28T05:34:00.962Z,87.90
2022-08-28T05:36:32.823Z,87.90
2022-08-28T05:39:03.217Z,87.70
2022-08-28T05:41:31.264Z,87.80
2022-08-28T05:44:03.010Z,87.80
2022-08-28T05:46:31.267Z,87.80
2022-08-28T05:49:00.607Z,87.80
2022-08-28T05:51:28.747Z,87.70
2022-08-28T05:53:57.889Z,87.70
2022-08-28T05:56:29.994Z,87.70
2022-08-28T05:59:00.181Z,87.60
2022-08-28T06:01:30.512Z,87.60
2022-08-28T06:03:59.841Z,87.50
2022-08-28T06:06:30.208Z,87.50
2022-08-28T06:09:00.114Z,87.40
2022-08-28T06:11:31.044Z,87.30
2022-08-28T06:14:02.466Z,87.30
2022-08-28T06:16:32.426Z,87.20
2022-08-28T06:19:00.794Z,87.10
2022-08-28T06:21:29.927Z,87.00
2022-08-28T06:23:57.448Z,86.80
2022-08-28T06:26:25.386Z,86.70
2022-08-28T06:28:53.703Z,86.60
2022-08-28T06:31:23.739Z,86.40
2022-08-28T06:33:54.463Z,86.30
2022-08-28T06:36:23.008Z,86.20
2022-08-28T06:38:51.340Z,86.00
2022-08-28T06:41:19.915Z,85.90
2022-08-28T06:43:47.996Z,85.80
2022-08-28T06:46:16.244Z,85.70
2022-08-28T06:48:44.039Z,85.50
2022-08-28T06:51:12.996Z,85.40
2022-08-28T06:53:41.539Z,85.30
2022-08-28T06:56:25.698Z,85.20
2022-08-28T06:58:56.904Z,85.00
2022-08-28T07:01:29.589Z,84.90
2022-08-28T07:04:01.025Z,84.80
2022-08-28T07:06:32.569Z,84.80
2022-08-28T07:09:00.723Z,84.70
2022-08-28T07:11:31.565Z,84.60
2022-08-28T07:14:00.038Z,84.50
2022-08-28T07:16:38.291Z,84.40
2022-08-28T07:19:07.875Z,84.20
2022-08-28T07:21:41.847Z,84.00
2022-08-28T07:24:11.528Z,83.80
2022-08-28T07:26:41.221Z,83.70
2022-08-28T07:29:10.835Z,83.50
2022-08-28T07:31:42.597Z,83.40
2022-08-28T07:34:12.755Z,83.40
2022-08-28T07:36:41.656Z,83.30
2022-08-28T07:39:11.251Z,83.30
2022-08-28T07:41:42.566Z,83.20
2022-08-28T07:44:31.230Z,83.20
2022-08-28T07:47:02.277Z,83.10
2022-08-28T07:49:31.519Z,83.00
2022-08-28T07:51:59.268Z,82.90
2022-08-28T07:54:27.283Z,82.80
2022-08-28T07:56:55.205Z,82.60
2022-08-28T07:59:22.983Z,82.60
2022-08-28T08:01:52.227Z,82.60
2022-08-28T08:04:21.300Z,82.40
2022-08-28T08:06:51.377Z,82.20
2022-08-28T08:09:22.329Z,82.00
2022-08-28T08:11:49.976Z,81.70
2022-08-28T08:14:18.809Z,81.50
2022-08-28T08:16:47.463Z,81.20
2022-08-28T08:19:16.614Z,81.00
2022-08-28T08:21:46.341Z,80.90
2022-08-28T08:24:20.647Z,80.70
2022-08-28T08:26:59.610Z,80.60
2022-08-28T08:29:30.216Z,80.40
2022-08-28T08:32:02.772Z,80.30
2022-08-28T08:34:30.953Z,80.20
2022-08-28T08:36:58.701Z,80.20
2022-08-28T08:39:26.543Z,80.20
2022-08-28T08:41:58.268Z,80.10
2022-08-28T08:44:38.811Z,79.80
2022-08-28T08:47:14.788Z,79.30
2022-08-28T08:49:58.794Z,78.90
2022-08-28T08:52:35.327Z,78.60
2022-08-28T08:55:26.085Z,78.30
2022-08-28T08:58:00.123Z,77.80
2022-08-28T09:00:31.541Z,77.50
2022-08-28T09:03:06.331Z,77.10
2022-08-28T09:05:56.989Z,76.80
2022-08-28T09:08:36.892Z,76.70
2022-08-28T09:11:22.928Z,76.40
2022-08-28T09:14:19.565Z,76.00
2022-08-28T09:16:48.577Z,75.90
2022-08-28T09:19:20.413Z,75.80
2022-08-28T09:21:51.501Z,75.50
2022-08-28T09:24:22.700Z,75.10
2022-08-28T09:26:53.916Z,73.90
2022-08-28T09:29:39.386Z,73.50
2022-08-28T09:32:25.415Z,73.30
2022-08-28T09:35:23.263Z,72.00
2022-08-28T09:37:51.553Z,71.60
2022-08-28T09:40:57.530Z,71.00
2022-08-28T09:43:28.539Z,70.50
2022-08-28T09:46:04.573Z,69.90
2022-08-28T09:48:35.868Z,68.70
2022-08-28T09:51:23.797Z,68.10
2022-08-28T09:53:57.348Z,67.60
2022-08-28T09:56:33.558Z,66.60
2022-08-28T09:59:07.540Z,65.90
2022-08-28T10:01:53.983Z,65.50
2022-08-28T10:04:33.916Z,65.20
2022-08-28T10:07:24.524Z,65.00
2022-08-28T10:10:30.451Z,65.10
2022-08-28T10:13:03.014Z,65.10
2022-08-28T10:16:09.776Z,65.10
2022-08-28T10:18:50.521Z,64.70
2022-08-28T10:21:31.722Z,64.70
2022-08-28T10:24:08.667Z,65.20
2022-08-28T10:27:21.390Z,65.20
2022-08-28T10:29:53.195Z,65.10
2022-08-28T10:32:20.798Z,65.50
2022-08-28T10:35:07.453Z,65.40
2022-08-28T10:38:11.749Z,65.20
2022-08-28T10:40:53.559Z,65.00
2022-08-28T10:43:39.555Z,64.50
2022-08-28T10:46:15.389Z,64.00
2022-08-28T10:48:46.816Z,63.90
2022-08-28T10:51:34.911Z,64.00
2022-08-28T10:54:05.198Z,64.40
2022-08-28T10:56:45.416Z,64.80
2022-08-28T10:59:20.566Z,64.10
2022-08-28T11:01:48.593Z,64.00
2022-08-28T11:04:25.099Z,63.70
2022-08-28T11:06:57.436Z,63.40
2022-08-28T11:09:39.459Z,63.20
2022-08-28T11:12:16.430Z,63.20
2022-08-28T11:14:48.315Z,62.70
2022-08-28T11:17:22.297Z,62.50
2022-08-28T11:20:08.946Z,61.20
2022-08-28T11:22:51.662Z,60.70
2022-08-28T11:25:26.624Z,58.80
2022-08-28T11:28:27.610Z,59.10
2022-08-28T11:31:01.361Z,59.20
2022-08-28T11:33:48.970Z,59.70
2022-08-28T11:36:22.407Z,59.30
2022-08-28T11:38:55.794Z,59.30
2022-08-28T11:41:36.938Z,58.90
2022-08-28T11:44:13.284Z,58.60
2022-08-28T11:46:49.737Z,58.10
2022-08-28T11:49:26.672Z,57.00
2022-08-28T11:52:29.749Z,56.60
2022-08-28T11:55:07.504Z,56.80
2022-08-28T11:57:53.051Z,56.80
2022-08-28T12:00:31.575Z,56.60
2022-08-28T12:03:12.674Z,55.70
2022-08-28T12:05:46.914Z,55.10
2022-08-28T12:08:51.357Z,55.10
2022-08-28T12:11:40.939Z,54.80
2022-08-28T12:14:31.743Z,53.80
2022-08-28T12:16:59.313Z,54.00
2022-08-28T12:19:51.241Z,53.90
2022-08-28T12:22:39.895Z,53.20
2022-08-28T12:25:25.534Z,52.90
2022-08-28T12:27:53.852Z,52.10
2022-08-28T12:30:36.200Z,51.40
2022-08-28T12:33:20.780Z,50.40
2022-08-28T12:35:50.000Z,50.50
2022-08-28T12:38:22.442Z,50.40
2022-08-28T12:40:52.848Z,49.80
2022-08-28T12:43:35.883Z,49.70
2022-08-28T12:46:23.370Z,48.90
2022-08-28T12:48:59.703Z,48.00
2022-08-28T12:51:28.985Z,47.00
2022-08-28T12:53:59.325Z,47.30
2022-08-28T12:56:34.170Z,47.50
2022-08-28T12:59:42.136Z,46.50
2022-08-28T13:02:28.963Z,44.90
2022-08-28T13:05:05.669Z,45.30
2022-08-28T13:07:47.542Z,44.70
2022-08-28T13:10:47.395Z,45.00
2022-08-28T13:13:29.552Z,45.00
2022-08-28T13:16:04.730Z,45.40
2022-08-28T13:19:06.775Z,45.40
2022-08-28T13:21:52.118Z,44.80
2022-08-28T13:24:26.213Z,43.80
2022-08-28T13:27:21.564Z,43.70
2022-08-28T13:30:00.121Z,43.90
2022-08-28T13:32:32.762Z,44.50
2022-08-28T13:35:09.158Z,44.40
2022-08-28T13:37:43.842Z,44.90
2022-08-28T13:40:25.658Z,45.30
2022-08-28T13:43:07.155Z,45.50
2022-08-28T13:45:43.094Z,45.30
2022-08-28T13:48:13.958Z,45.40
2022-08-28T13:50:47.222Z,45.50
2022-08-28T13:53:16.754Z,45.40
2022-08-28T13:55:45.482Z,45.60
2022-08-28T13:58:14.085Z,45.50
2022-08-28T14:00:45.224Z,45.80
2022-08-28T14:03:31.406Z,45.60
2022-08-28T14:05:59.104Z,45.80
2022-08-28T14:08:26.770Z,46.20
2022-08-28T14:10:54.471Z,46.30
2022-08-28T14:13:23.545Z,46.30
2022-08-28T14:15:51.137Z,46.70
2022-08-28T14:18:18.714Z,46.30
2022-08-28T14:20:46.393Z,46.30
2022-08-28T14:23:14.198Z,46.20
2022-08-28T14:25:47.531Z,46.00
2022-08-28T14:28:16.514Z,46.00
2022-08-28T14:30:45.644Z,45.60
2022-08-28T14:33:16.779Z,45.60
2022-08-28T14:35:45.800Z,45.90
2022-08-28T14:38:14.335Z,46.10
2022-08-28T14:40:44.188Z,46.50
2022-08-28T14:43:13.680Z,46.50
2022-08-28T14:45:46.480Z,46.30
2022-08-28T14:48:14.955Z,46.00
2022-08-28T14:50:45.729Z,46.30
2022-08-28T14:53:14.123Z,46.40
2022-08-28T14:55:43.942Z,46.10
2022-08-28T14:58:12.693Z,45.80
2022-08-28T15:00:49.518Z,46.00
2022-08-28T15:03:19.339Z,45.60
2022-08-28T15:05:47.267Z,45.10
2022-08-28T15:08:16.893Z,44.70
2022-08-28T15:10:45.377Z,44.50
2022-08-28T15:13:13.300Z,43.60
2022-08-28T15:15:43.078Z,42.30
2022-08-28T15:18:11.358Z,40.60
2022-08-28T15:20:46.719Z,39.10
2022-08-28T15:23:15.501Z,37.40
2022-08-28T15:25:43.292Z,36.20
2022-08-28T15:28:12.638Z,35.40
2022-08-28T15:30:41.877Z,34.70
2022-08-28T15:33:09.479Z,34.40
2022-08-28T15:35:37.258Z,33.90
2022-08-28T15:38:05.663Z,33.80
2022-08-28T15:40:52.961Z,34.10
2022-08-28T15:43:21.504Z,34.60
2022-08-28T15:45:50.070Z,35.00
2022-08-28T15:48:17.922Z,35.30
2022-08-28T15:50:45.562Z,35.20
2022-08-28T15:53:13.337Z,34.90
2022-08-28T15:55:41.481Z,35.20
2022-08-28T15:58:13.832Z,35.50
2022-08-28T16:00:42.520Z,35.70
2022-08-28T16:03:10.488Z,36.30
2022-08-28T16:05:40.958Z,36.60
2022-08-28T16:08:10.469Z,36.60
2022-08-28T16:10:39.107Z,36.00
2022-08-28T16:13:07.053Z,35.70
2022-08-28T16:15:35.324Z,35.20
2022-08-28T16:18:03.307Z,35.10
2022-08-28T16:20:31.113Z,34.50
2022-08-28T16:22:59.087Z,33.90
2022-08-28T16:25:26.751Z,33.30
2022-08-28T16:27:55.017Z,32.90
2022-08-28T16:30:24.323Z,32.80
2022-08-28T16:32:54.181Z,33.10
2022-08-28T16:35:22.047Z,32.50
2022-08-28T16:37:50.080Z,32.50
2022-08-28T16:40:17.897Z,33.00
2022-08-28T16:42:51.356Z,33.60
2022-08-28T16:45:20.472Z,34.30
2022-08-28T16:47:49.286Z,35.30
2022-08-28T16:50:20.906Z,36.60
2022-08-28T16:52:49.770Z,37.80
2022-08-28T16:55:17.583Z,38.50
2022-08-28T16:57:46.112Z,38.80
2022-08-28T17:00:14.292Z,39.40
2022-08-28T17:02:43.415Z,39.80
2022-08-28T17:05:12.459Z,40.40
2022-08-28T17:07:40.180Z,40.60
2022-08-28T17:10:09.488Z,41.30
2022-08-28T17:12:37.247Z,41.80
2022-08-28T17:15:06.721Z,42.70
2022-08-28T17:17:34.802Z,43.00
2022-08-28T17:20:03.749Z,43.10
2022-08-28T17:22:32.187Z,43.40
2022-08-28T17:25:14.126Z,43.80
2022-08-28T17:27:42.177Z,44.10
2022-08-28T17:30:10.600Z,44.20
2022-08-28T17:32:40.737Z,44.50
2022-08-28T17:35:13.006Z,44.80
2022-08-28T17:37:41.364Z,45.30
2022-08-28T17:40:12.536Z,45.60
2022-08-28T17:42:40.638Z,46.00
2022-08-28T17:45:08.893Z,46.00
2022-08-28T17:47:36.554Z,46.50
2022-08-28T17:50:06.095Z,46.80
2022-08-28T17:52:34.276Z,47.30
2022-08-28T17:55:02.370Z,47.70
2022-08-28T17:57:30.703Z,47.80
2022-08-28T18:00:00.030Z,47.80
2022-08-28T18:02:28.510Z,48.10
2022-08-28T18:04:56.191Z,48.70
2022-08-28T18:07:23.830Z,48.80
2022-08-28T18:09:51.497Z,48.80
2022-08-28T18:12:19.804Z,49.10
2022-08-28T18:14:47.571Z,49.40
2022-08-28T18:17:16.285Z,49.90
2022-08-28T18:19:44.012Z,50.20
2022-08-28T18:22:13.568Z,50.70
2022-08-28T18:24:41.879Z,51.40
2022-08-28T18:27:09.577Z,51.90
2022-08-28T18:29:39.454Z,52.50
2022-08-28T18:32:07.905Z,53.00
2022-08-28T18:34:40.073Z,53.10
2022-08-28T18:37:08.214Z,53.30
2022-08-28T18:39:42.313Z,53.60
2022-08-28T18:42:12.649Z,53.70
2022-08-28T18:44:40.492Z,53.90
2022-08-28T18:47:09.398Z,54.10
2022-08-28T18:49:36.961Z,54.50
2022-08-28T18:52:04.852Z,54.50
2022-08-28T18:54:32.572Z,55.40
2022-08-28T18:57:04.214Z,56.10
2022-08-28T18:59:33.952Z,56.30
2022-08-28T19:02:02.010Z,56.60
2022-08-28T19:04:29.723Z,57.00
2022-08-28T19:06:57.295Z,57.40
2022-08-28T19:09:31.743Z,58.20
2022-08-28T19:12:00.713Z,58.60
2022-08-28T19:14:28.628Z,58.80
2022-08-28T19:16:57.603Z,59.00
2022-08-28T19:19:26.430Z,59.00
2022-08-28T19:21:55.117Z,58.80
2022-08-28T19:24:24.381Z,59.10
2022-08-28T19:26:52.010Z,59.10
2022-08-28T19:29:19.758Z,59.40
2022-08-28T19:31:47.498Z,59.60
2022-08-28T19:34:15.138Z,59.90
2022-08-28T19:36:42.827Z,60.10
2022-08-28T19:39:10.740Z,60.30
2022-08-28T19:41:38.820Z,60.70
2022-08-28T19:44:06.935Z,61.10
2022-08-28T19:46:36.698Z,61.40
2022-08-28T19:49:05.862Z,61.80
2022-08-28T19:51:35.736Z,62.10
2022-08-28T19:54:03.843Z,62.60
2022-08-28T19:56:33.428Z,62.80
2022-08-28T19:59:03.070Z,62.90
2022-08-28T20:01:33.708Z,62.90
2022-08-28T20:04:05.096Z,63.10
2022-08-28T20:06:36.843Z,63.40
2022-08-28T20:09:10.687Z,63.60
2022-08-28T20:11:42.330Z,63.80
2022-08-28T20:14:10.549Z,64.00
2022-08-28T20:16:43.860Z,64.10
2022-08-28T20:19:12.835Z,64.20
2022-08-28T20:21:41.262Z,64.40
2022-08-28T20:24:11.996Z,64.10
2022-08-28T20:26:39.818Z,64.50
2022-08-28T20:29:08.578Z,64.80
2022-08-28T20:31:41.023Z,65.10
2022-08-28T20:34:13.424Z,65.30
2022-08-28T20:36:43.669Z,65.20
2022-08-28T20:39:13.508Z,65.10
2022-08-28T20:41:42.975Z,65.20
2022-08-28T20:44:16.818Z,65.20
2022-08-28T20:46:51.205Z,65.70
2022-08-28T20:49:22.108Z,65.90
2022-08-28T20:51:55.060Z,66.10
2022-08-28T20:54:29.891Z,66.40
2022-08-28T20:57:00.131Z,66.70
2022-08-28T20:59:34.395Z,66.70
2022-08-28T21:02:17.275Z,67.00
2022-08-28T21:05:20.720Z,67.30
2022-08-28T21:07:54.420Z,67.50
2022-08-28T21:10:27.042Z,67.50
2022-08-28T21:12:55.214Z,67.50
2022-08-28T21:15:24.422Z,67.40
2022-08-28T21:17:54.260Z,67.20
2022-08-28T21:20:23.955Z,66.80
2022-08-28T21:22:59.751Z,66.40
2022-08-28T21:25:30.063Z,66.10
2022-08-28T21:27:57.801Z,65.90
2022-08-28T21:30:29.906Z,65.80
2022-08-28T21:32:58.020Z,65.70
2022-08-28T21:35:25.987Z,65.70
2022-08-28T21:37:53.664Z,65.80
2022-08-28T21:40:21.393Z,65.90
2022-08-28T21:42:49.140Z,66.10
2022-08-28T21:45:17.991Z,66.20
2022-08-28T21:47:45.514Z,66.30
2022-08-28T21:50:13.555Z,66.40
2022-08-28T21:52:41.573Z,66.50
2022-08-28T21:55:12.972Z,66.60
2022-08-28T21:57:41.010Z,66.70
2022-08-28T22:00:13.474Z,66.90
2022-08-28T22:02:41.204Z,67.10
2022-08-28T22:05:09.559Z,67.30
2022-08-28T22:07:37.360Z,67.30
2022-08-28T22:10:05.671Z,67.40
2022-08-28T22:12:33.520Z,67.60
2022-08-28T22:15:01.532Z,67.70
2022-08-28T22:17:29.688Z,68.00
2022-08-28T22:19:57.259Z,68.30
2022-08-28T22:22:43.545Z,68.40
2022-08-28T22:25:11.442Z,68.40
2022-08-28T22:27:39.275Z,68.60
2022-08-28T22:30:07.537Z,69.00
2022-08-28T22:32:35.202Z,69.10
2022-08-28T22:35:03.022Z,69.20
2022-08-28T22:37:30.611Z,69.40
2022-08-28T22:39:59.248Z,69.50
2022-08-28T22:42:27.058Z,69.70
2022-08-28T22:44:54.833Z,69.90
2022-08-28T22:47:22.486Z,70.00
2022-08-28T22:49:50.185Z,70.20
2022-08-28T22:52:17.804Z,70.40
2022-08-28T22:54:45.812Z,70.60
2022-08-28T22:57:14.493Z,70.70
2022-08-28T22:59:42.242Z,70.70
2022-08-28T23:02:10.067Z,70.80
2022-08-28T23:04:38.506Z,70.90
2022-08-28T23:07:06.916Z,71.10
2022-08-28T23:09:36.054Z,71.20
2022-08-28T23:12:07.920Z,71.30
2022-08-28T23:14:38.692Z,71.50
2022-08-28T23:17:06.580Z,71.50
2022-08-28T23:19:34.386Z,71.70
2022-08-28T23:22:02.079Z,71.80
2022-08-28T23:24:31.248Z,71.90
2022-08-28T23:27:13.988Z,72.00
2022-08-28T23:29:46.598Z,72.10
2022-08-28T23:32:21.072Z,72.30
2022-08-28T23:34:49.318Z,72.40
2022-08-28T23:37:17.542Z,72.40
2022-08-28T23:39:45.209Z,72.50
2022-08-28T23:42:14.294Z,72.50
2022-08-28T23:44:42.024Z,72.60
2022-08-28T23:47:10.306Z,72.50
2022-08-28T23:49:42.664Z,72.60
2022-08-28T23:52:10.896Z,72.60
2022-08-28T23:54:39.993Z,72.60
2022-08-28T23:57:08.678Z,72.60
2022-08-28T23:59:38.617Z,72.40
